createdAt,value
2022-10-28T00:01:38.097Z,7.03
2022-10-28T00:04:04.642Z,7.47
2022-10-28T00:06:34.447Z,7.28
2022-10-28T00:09:01.465Z,6.90
2022-10-28T00:11:30.725Z,6.82
2022-10-28T00:14:00.838Z,7.13
2022-10-28T00:16:29.918Z,7.38
2022-10-28T00:18:58.347Z,7.05
2022-10-28T00:21:27.490Z,8.05
2022-10-28T00:23:54.338Z,9.00
2022-10-28T00:26:23.914Z,11.00
2022-10-28T00:28:55.202Z,10.32
2022-10-28T00:31:24.406Z,10.70
2022-10-28T00:33:51.732Z,9.98
2022-10-28T00:36:20.597Z,10.38
2022-10-28T00:38:48.475Z,9.77
2022-10-28T00:41:23.092Z,9.65
2022-10-28T00:43:51.924Z,9.70
2022-10-28T00:46:45.256Z,8.52
2022-10-28T00:49:16.745Z,8.93
2022-10-28T00:51:46.073Z,8.87
2022-10-28T00:54:13.770Z,8.38
2022-10-28T00:56:46.235Z,8.65
2022-10-28T00:59:27.051Z,7.97
2022-10-28T01:01:54.454Z,8.68
2022-10-28T01:04:21.914Z,9.40
2022-10-28T01:06:48.837Z,8.80
2022-10-28T01:09:15.247Z,9.65
2022-10-28T01:11:59.772Z,8.40
2022-10-28T01:14:36.673Z,8.50
2022-10-28T01:17:17.163Z,7.87
2022-10-28T01:20:14.506Z,7.80
2022-10-28T01:23:18.491Z,7.57
2022-10-28T01:26:11.198Z,7.43
2022-10-28T01:29:01.886Z,7.25
2022-10-28T01:31:37.392Z,8.13
2022-10-28T01:34:12.964Z,7.10
2022-10-28T01:36:56.860Z,7.00
2022-10-28T01:39:48.070Z,7.78
2022-10-28T01:42:42.652Z,7.13
2022-10-28T01:45:08.941Z,7.40
2022-10-28T01:47:50.512Z,6.95
2022-10-28T01:50:30.082Z,7.40
2022-10-28T01:53:00.119Z,7.97
2022-10-28T01:55:33.020Z,6.78
2022-10-28T01:58:01.668Z,7.00
2022-10-28T02:00:29.873Z,7.03
2022-10-28T02:02:56.782Z,7.43
2022-10-28T02:05:44.376Z,7.18
2022-10-28T02:08:19.880Z,6.70
2022-10-28T02:11:26.743Z,6.97
2022-10-28T02:14:18.124Z,5.97
2022-10-28T02:17:19.545Z,6.30
2022-10-28T02:19:50.956Z,5.53
2022-10-28T02:22:51.261Z,5.60
2022-10-28T02:25:31.366Z,5.23
2022-10-28T02:28:02.972Z,4.70
2022-10-28T02:30:34.745Z,5.30
2022-10-28T02:33:04.789Z,5.30
2022-10-28T02:35:41.316Z,5.72
2022-10-28T02:38:12.707Z,5.47
2022-10-28T02:40:41.437Z,5.57
2022-10-28T02:43:10.543Z,5.78
2022-10-28T02:45:43.210Z,5.97
2022-10-28T02:48:26.152Z,6.18
2022-10-28T02:51:09.126Z,5.20
2022-10-28T02:54:10.964Z,5.55
2022-10-28T02:56:48.414Z,5.75
2022-10-28T02:59:14.860Z,5.53
2022-10-28T03:01:41.306Z,5.63
2022-10-28T03:04:07.888Z,5.20
2022-10-28T03:06:34.313Z,5.35
2022-10-28T03:09:00.682Z,4.82
2022-10-28T03:11:27.044Z,4.88
2022-10-28T03:13:53.513Z,4.90
2022-10-28T03:16:19.894Z,4.10
2022-10-28T03:18:46.278Z,4.68
2022-10-28T03:21:12.645Z,4.20
2022-10-28T03:23:38.986Z,4.25
2022-10-28T03:26:05.501Z,4.43
2022-10-28T03:28:31.893Z,4.83
2022-10-28T03:30:58.395Z,4.50
2022-10-28T03:33:24.759Z,4.28
2022-10-28T03:35:51.164Z,4.70
2022-10-28T03:38:17.508Z,3.75
2022-10-28T03:40:43.883Z,3.93
2022-10-28T03:43:10.212Z,4.38
2022-10-28T03:45:36.568Z,4.95
2022-10-28T03:48:03.047Z,4.65
2022-10-28T03:50:29.440Z,5.30
2022-10-28T03:52:55.822Z,4.90
2022-10-28T03:55:23.716Z,5.13
2022-10-28T03:57:50.067Z,4.97
2022-10-28T04:00:16.606Z,5.15
2022-10-28T04:02:43.045Z,5.70
2022-10-28T04:05:09.545Z,5.90
2022-10-28T04:07:35.967Z,5.53
2022-10-28T04:10:02.332Z,5.90
2022-10-28T04:12:28.693Z,6.40
2022-10-28T04:14:55.163Z,6.00
2022-10-28T04:17:21.631Z,5.40
2022-10-28T04:19:47.992Z,5.45
2022-10-28T04:22:14.357Z,5.88
2022-10-28T04:24:40.742Z,5.95
2022-10-28T04:27:07.236Z,5.80
2022-10-28T04:29:33.740Z,6.00
2022-10-28T04:32:00.099Z,6.30
2022-10-28T04:34:26.480Z,5.88
2022-10-28T04:36:53.206Z,5.90
2022-10-28T04:39:19.540Z,5.90
2022-10-28T04:41:45.964Z,5.70
2022-10-28T04:44:12.310Z,6.18
2022-10-28T04:46:39.238Z,5.72
2022-10-28T04:49:05.677Z,5.55
2022-10-28T04:51:32.049Z,5.38
2022-10-28T04:53:58.418Z,6.00
2022-10-28T04:56:24.851Z,5.57
2022-10-28T04:58:51.215Z,5.93
2022-10-28T05:01:17.745Z,5.85
2022-10-28T05:03:44.232Z,5.78
2022-10-28T05:06:10.578Z,5.23
2022-10-28T05:08:36.959Z,5.28
2022-10-28T05:11:03.324Z,5.50
2022-10-28T05:13:29.687Z,5.53
2022-10-28T05:15:56.052Z,5.07
2022-10-28T05:18:22.408Z,5.40
2022-10-28T05:20:52.726Z,5.85
2022-10-28T05:23:19.083Z,5.75
2022-10-28T05:25:45.427Z,5.80
2022-10-28T05:28:11.801Z,5.88
2022-10-28T05:30:38.157Z,6.53
2022-10-28T05:33:04.565Z,6.22
2022-10-28T05:35:31.353Z,6.25
2022-10-28T05:37:57.912Z,5.70
2022-10-28T05:40:24.512Z,6.30
2022-10-28T05:42:51.083Z,6.57
2022-10-28T05:45:17.920Z,6.22
2022-10-28T05:47:46.380Z,6.28
2022-10-28T05:50:13.997Z,6.20
2022-10-28T05:52:40.792Z,6.30
2022-10-28T05:55:07.408Z,6.50
2022-10-28T05:57:35.613Z,6.50
2022-10-28T06:00:02.777Z,6.50
2022-10-28T06:02:29.134Z,7.63
2022-10-28T06:04:55.539Z,6.93
2022-10-28T06:07:21.941Z,6.53
2022-10-28T06:09:48.328Z,6.63
2022-10-28T06:12:13.187Z,6.28
2022-10-28T06:14:39.531Z,6.82
2022-10-28T06:17:05.910Z,6.40
2022-10-28T06:19:32.319Z,6.00
2022-10-28T06:21:58.687Z,6.50
2022-10-28T06:24:25.091Z,6.18
2022-10-28T06:26:51.499Z,6.38
2022-10-28T06:29:18.923Z,6.65
2022-10-28T06:31:45.389Z,6.97
2022-10-28T06:34:12.026Z,6.40
2022-10-28T06:36:38.558Z,6.32
2022-10-28T06:39:05.737Z,6.97
2022-10-28T06:41:32.429Z,7.72
2022-10-28T06:43:59.108Z,6.77
2022-10-28T06:46:25.521Z,6.78
2022-10-28T06:48:54.756Z,7.18
2022-10-28T06:51:21.651Z,6.32
2022-10-28T06:53:52.123Z,6.18
2022-10-28T06:56:18.959Z,6.57
2022-10-28T06:58:50.711Z,5.80
2022-10-28T07:01:17.973Z,6.22
2022-10-28T07:03:44.531Z,6.80
2022-10-28T07:06:10.973Z,6.32
2022-10-28T07:08:37.403Z,6.43
2022-10-28T07:11:03.924Z,6.72
2022-10-28T07:13:30.321Z,6.43
2022-10-28T07:15:59.190Z,6.80
2022-10-28T07:18:27.944Z,6.22
2022-10-28T07:20:57.568Z,6.60
2022-10-28T07:23:24.092Z,6.72
2022-10-28T07:25:55.604Z,6.25
2022-10-28T07:28:23.648Z,6.30
2022-10-28T07:30:50.214Z,6.05
2022-10-28T07:33:16.666Z,6.27
2022-10-28T07:35:44.213Z,5.95
2022-10-28T07:38:10.888Z,5.90
2022-10-28T07:40:37.640Z,6.00
2022-10-28T07:43:03.998Z,5.13
2022-10-28T07:45:30.562Z,6.13
2022-10-28T07:47:56.993Z,5.68
2022-10-28T07:50:23.407Z,5.72
2022-10-28T07:52:49.855Z,5.38
2022-10-28T07:55:16.262Z,5.50
2022-10-28T07:57:42.647Z,5.80
2022-10-28T08:00:09.333Z,5.97
2022-10-28T08:02:35.769Z,6.18
2022-10-28T08:05:02.350Z,5.97
2022-10-28T08:07:28.859Z,6.13
2022-10-28T08:09:55.232Z,6.90
2022-10-28T08:12:21.589Z,6.53
2022-10-28T08:14:47.932Z,6.32
2022-10-28T08:17:14.310Z,5.10
2022-10-28T08:19:40.680Z,6.32
2022-10-28T08:22:07.503Z,5.13
2022-10-28T08:24:33.870Z,6.18
2022-10-28T08:27:01.495Z,5.80
2022-10-28T08:29:30.113Z,6.13
2022-10-28T08:31:57.756Z,5.43
2022-10-28T08:34:29.203Z,6.60
2022-10-28T08:36:56.478Z,5.15
2022-10-28T08:39:22.919Z,5.75
2022-10-28T08:41:59.783Z,5.70
2022-10-28T08:44:53.653Z,5.63
2022-10-28T08:47:32.285Z,5.27
2022-10-28T08:50:05.308Z,4.88
2022-10-28T08:52:34.242Z,5.53
2022-10-28T08:55:28.532Z,5.00
2022-10-28T08:58:04.326Z,5.22
2022-10-28T09:00:33.779Z,5.20
2022-10-28T09:03:12.374Z,5.72
2022-10-28T09:05:41.075Z,5.85
2022-10-28T09:08:21.465Z,5.03
2022-10-28T09:11:27.169Z,4.40
2022-10-28T09:14:07.916Z,4.80
2022-10-28T09:16:54.252Z,4.60
2022-10-28T09:19:58.028Z,4.57
2022-10-28T09:22:34.592Z,4.25
2022-10-28T09:25:04.838Z,4.10
2022-10-28T09:27:56.933Z,3.90
2022-10-28T09:30:57.030Z,4.07
2022-10-28T09:33:35.426Z,3.85
2022-10-28T09:36:05.364Z,4.30
2022-10-28T09:38:35.269Z,3.65
2022-10-28T09:41:06.389Z,3.70
2022-10-28T09:43:42.918Z,3.85
2022-10-28T09:46:15.306Z,3.78
2022-10-28T09:48:45.873Z,3.88
2022-10-28T09:51:24.587Z,3.95
2022-10-28T09:53:57.776Z,3.83
2022-10-28T09:56:25.419Z,3.63
2022-10-28T09:58:53.647Z,4.38
2022-10-28T10:01:20.470Z,3.90
2022-10-28T10:03:51.979Z,3.13
2022-10-28T10:06:25.842Z,3.90
2022-10-28T10:08:55.115Z,3.78
2022-10-28T10:11:32.917Z,3.90
2022-10-28T10:14:06.680Z,3.58
2022-10-28T10:16:32.972Z,3.80
2022-10-28T10:19:02.910Z,3.87
2022-10-28T10:21:52.694Z,3.70
2022-10-28T10:24:35.231Z,3.08
2022-10-28T10:27:10.774Z,3.40
2022-10-28T10:29:44.161Z,2.85
2022-10-28T10:32:22.615Z,3.47
2022-10-28T10:35:06.694Z,2.90
2022-10-28T10:37:41.186Z,2.58
2022-10-28T10:40:30.981Z,2.92
2022-10-28T10:43:17.258Z,2.58
2022-10-28T10:45:58.574Z,3.13
2022-10-28T10:48:25.235Z,3.10
2022-10-28T10:50:53.613Z,2.85
2022-10-28T10:53:21.547Z,2.80
2022-10-28T10:55:57.728Z,3.10
2022-10-28T10:58:28.663Z,2.97
2022-10-28T11:00:57.054Z,3.22
2022-10-28T11:03:28.330Z,2.83
2022-10-28T11:06:18.316Z,2.85
2022-10-28T11:08:44.310Z,2.83
2022-10-28T11:11:14.356Z,3.00
2022-10-28T11:13:45.076Z,2.38
2022-10-28T11:16:22.728Z,2.95
2022-10-28T11:18:51.788Z,2.53
2022-10-28T11:21:42.928Z,2.55
2022-10-28T11:24:24.471Z,3.00
2022-10-28T11:27:07.248Z,2.75
2022-10-28T11:29:33.729Z,2.70
2022-10-28T11:32:28.598Z,3.00
2022-10-28T11:35:06.864Z,2.70
2022-10-28T11:37:33.138Z,2.87
2022-10-28T11:40:05.544Z,2.90
2022-10-28T11:42:46.452Z,2.40
2022-10-28T11:45:30.967Z,2.50
2022-10-28T11:48:22.399Z,2.88
2022-10-28T11:51:08.688Z,2.87
2022-10-28T11:53:49.072Z,2.67
2022-10-28T11:56:24.434Z,2.72
2022-10-28T11:59:32.250Z,2.75
2022-10-28T12:02:15.114Z,2.80
2022-10-28T12:04:58.299Z,3.13
2022-10-28T12:07:39.811Z,2.72
2022-10-28T12:10:18.306Z,2.80
2022-10-28T12:12:57.905Z,3.00
2022-10-28T12:15:36.986Z,2.50
2022-10-28T12:18:29.758Z,3.37
2022-10-28T12:21:12.651Z,2.67
2022-10-28T12:23:41.865Z,2.85
2022-10-28T12:26:12.200Z,3.08
2022-10-28T12:28:49.354Z,2.70
2022-10-28T12:31:45.140Z,3.10
2022-10-28T12:34:22.445Z,2.80
2022-10-28T12:36:58.447Z,2.80
2022-10-28T12:39:27.367Z,2.75
2022-10-28T12:42:11.235Z,2.60
2022-10-28T12:44:38.838Z,3.20
2022-10-28T12:47:18.391Z,2.90
2022-10-28T12:50:09.311Z,2.88
2022-10-28T12:53:09.407Z,3.22
2022-10-28T12:55:59.418Z,3.05
2022-10-28T12:58:52.548Z,2.50
2022-10-28T13:01:22.244Z,2.60
2022-10-28T13:03:52.519Z,3.05
2022-10-28T13:06:29.793Z,2.88
2022-10-28T13:09:12.496Z,2.75
2022-10-28T13:11:47.780Z,3.00
2022-10-28T13:14:52.256Z,2.88
2022-10-28T13:17:28.791Z,2.70
2022-10-28T13:20:04.674Z,2.85
2022-10-28T13:23:20.283Z,2.90
2022-10-28T13:26:21.815Z,2.63
2022-10-28T13:28:51.991Z,2.47
2022-10-28T13:31:19.823Z,2.55
2022-10-28T13:33:51.232Z,2.65
2022-10-28T13:36:36.254Z,2.83
2022-10-28T13:39:05.969Z,2.60
2022-10-28T13:41:33.861Z,2.95
2022-10-28T13:44:20.453Z,2.70
2022-10-28T13:46:59.211Z,2.47
2022-10-28T13:49:30.145Z,2.90
2022-10-28T13:52:07.087Z,2.87
2022-10-28T13:54:39.437Z,2.53
2022-10-28T13:57:17.272Z,2.72
2022-10-28T13:59:51.757Z,2.75
2022-10-28T14:02:38.374Z,2.40
2022-10-28T14:05:11.495Z,2.37
2022-10-28T14:07:55.960Z,2.63
2022-10-28T14:10:32.828Z,3.03
2022-10-28T14:13:06.864Z,2.95
2022-10-28T14:15:38.675Z,3.20
2022-10-28T14:18:41.327Z,2.80
2022-10-28T14:21:01.706Z,2.80
2022-10-28T14:23:28.231Z,2.75
2022-10-28T14:25:54.617Z,2.92
2022-10-28T14:28:26.942Z,3.00
2022-10-28T14:31:08.807Z,2.97
2022-10-28T14:33:46.877Z,2.55
2022-10-28T14:36:22.099Z,2.92
2022-10-28T14:39:03.750Z,2.90
2022-10-28T14:42:04.311Z,3.00
2022-10-28T14:45:04.527Z,3.17
2022-10-28T14:47:36.913Z,3.05
2022-10-28T14:50:24.881Z,2.47
2022-10-28T14:52:55.551Z,3.10
2022-10-28T14:55:31.786Z,3.05
2022-10-28T14:58:16.686Z,3.00
2022-10-28T15:01:06.977Z,3.33
2022-10-28T15:03:33.878Z,3.30
2022-10-28T15:06:28.018Z,3.30
2022-10-28T15:08:55.711Z,3.28
2022-10-28T15:11:22.763Z,3.60
2022-10-28T15:13:52.482Z,3.30
2022-10-28T15:16:23.904Z,3.42
2022-10-28T15:18:53.337Z,4.00
2022-10-28T15:21:22.694Z,3.50
2022-10-28T15:24:02.104Z,3.67
2022-10-28T15:26:28.647Z,3.42
2022-10-28T15:28:55.714Z,3.55
2022-10-28T15:31:22.125Z,3.20
2022-10-28T15:33:48.503Z,3.50
2022-10-28T15:36:18.853Z,3.50
2022-10-28T15:39:01.932Z,3.70
2022-10-28T15:41:28.228Z,5.03
2022-10-28T15:43:59.762Z,5.90
2022-10-28T15:46:27.257Z,6.50
2022-10-28T15:48:55.095Z,5.70
2022-10-28T15:51:21.610Z,5.43
2022-10-28T15:53:54.048Z,5.40
2022-10-28T15:56:22.037Z,4.60
2022-10-28T15:58:58.817Z,5.15
2022-10-28T16:01:39.714Z,4.77
2022-10-28T16:04:23.352Z,4.57
2022-10-28T16:06:52.378Z,4.15
2022-10-28T16:09:30.089Z,4.45
2022-10-28T16:12:01.537Z,4.38
2022-10-28T16:14:37.823Z,4.20
2022-10-28T16:17:15.458Z,5.05
2022-10-28T16:19:53.192Z,4.90
2022-10-28T16:22:20.412Z,5.38
2022-10-28T16:24:46.999Z,5.10
2022-10-28T16:27:17.221Z,5.03
2022-10-28T16:29:43.736Z,7.70
2022-10-28T16:32:14.238Z,5.85
2022-10-28T16:34:41.371Z,4.28
2022-10-28T16:37:21.078Z,4.72
2022-10-28T16:39:47.519Z,4.83
2022-10-28T16:42:14.488Z,5.35
2022-10-28T16:44:40.890Z,5.22
2022-10-28T16:47:12.648Z,5.20
2022-10-28T16:49:40.186Z,5.40
2022-10-28T16:52:11.855Z,5.87
2022-10-28T16:54:38.192Z,5.03
2022-10-28T16:57:04.543Z,5.65
2022-10-28T16:59:30.942Z,6.40
2022-10-28T17:01:59.561Z,5.18
2022-10-28T17:04:26.322Z,5.00
2022-10-28T17:06:52.713Z,4.80
2022-10-28T17:09:19.094Z,5.47
2022-10-28T17:11:45.463Z,5.20
2022-10-28T17:14:11.851Z,6.18
2022-10-28T17:16:40.694Z,5.40
2022-10-28T17:19:09.659Z,6.25
2022-10-28T17:21:36.024Z,5.82
2022-10-28T17:24:03.842Z,6.25
2022-10-28T17:26:30.206Z,7.15
2022-10-28T17:28:56.551Z,6.93
2022-10-28T17:31:25.064Z,6.30
2022-10-28T17:33:55.449Z,6.20
2022-10-28T17:36:23.084Z,7.60
2022-10-28T17:38:49.494Z,6.55
2022-10-28T17:41:15.846Z,6.70
2022-10-28T17:43:42.389Z,7.32
2022-10-28T17:46:09.759Z,6.68
2022-10-28T17:48:36.250Z,6.82
2022-10-28T17:51:02.719Z,7.63
2022-10-28T17:53:29.118Z,7.80
2022-10-28T17:55:59.604Z,8.00
2022-10-28T17:58:26.542Z,8.70
2022-10-28T18:01:00.130Z,8.73
2022-10-28T18:03:27.631Z,8.60
2022-10-28T18:05:54.363Z,8.90
2022-10-28T18:08:21.096Z,8.15
2022-10-28T18:10:52.135Z,7.45
2022-10-28T18:13:18.876Z,7.13
2022-10-28T18:15:45.661Z,6.93
2022-10-28T18:18:12.019Z,6.50
2022-10-28T18:20:38.451Z,8.48
2022-10-28T18:23:04.792Z,11.65
2022-10-28T18:25:31.143Z,10.40
2022-10-28T18:27:57.517Z,8.32
2022-10-28T18:30:23.963Z,7.20
2022-10-28T18:32:50.324Z,6.43
2022-10-28T18:35:16.678Z,6.43
2022-10-28T18:37:43.043Z,6.50
2022-10-28T18:40:09.858Z,5.68
2022-10-28T18:42:36.219Z,5.73
2022-10-28T18:45:03.293Z,5.40
2022-10-28T18:47:30.220Z,5.53
2022-10-28T18:49:56.577Z,7.20
2022-10-28T18:52:22.948Z,4.90
2022-10-28T18:54:49.289Z,4.17
2022-10-28T18:57:16.908Z,5.60
2022-10-28T19:00:12.453Z,4.50
2022-10-28T19:02:29.742Z,3.92
2022-10-28T19:04:57.988Z,4.70
2022-10-28T19:07:24.322Z,4.03
2022-10-28T19:09:50.702Z,4.00
2022-10-28T19:12:17.072Z,3.63
2022-10-28T19:14:43.417Z,3.97
2022-10-28T19:17:09.821Z,3.88
2022-10-28T19:19:39.231Z,3.57
2022-10-28T19:22:08.048Z,3.90
2022-10-28T19:24:34.578Z,3.63
2022-10-28T19:27:00.942Z,3.40
2022-10-28T19:29:27.355Z,3.50
2022-10-28T19:31:53.747Z,3.13
2022-10-28T19:34:20.275Z,3.90
2022-10-28T19:36:46.613Z,3.28
2022-10-28T19:39:13.125Z,3.80
2022-10-28T19:41:39.506Z,3.20
2022-10-28T19:44:05.885Z,3.70
2022-10-28T19:46:34.411Z,3.50
2022-10-28T19:49:04.415Z,3.80
2022-10-28T19:51:33.624Z,3.78
2022-10-28T19:54:05.179Z,3.92
2022-10-28T19:56:33.288Z,3.80
2022-10-28T19:59:01.572Z,3.85
2022-10-28T20:01:30.691Z,3.72
2022-10-28T20:03:57.678Z,3.88
2022-10-28T20:06:31.740Z,4.28
2022-10-28T20:08:58.098Z,3.73
2022-10-28T20:11:29.884Z,3.50
2022-10-28T20:13:58.603Z,3.88
2022-10-28T20:16:25.445Z,3.30
2022-10-28T20:18:53.961Z,3.70
2022-10-28T20:21:22.085Z,3.90
2022-10-28T20:26:18.119Z,3.25
2022-10-28T20:28:44.491Z,4.18
2022-10-28T20:31:13.411Z,4.22
2022-10-28T20:33:41.614Z,3.40
2022-10-28T20:36:30.869Z,3.75
2022-10-28T20:39:02.269Z,4.10
2022-10-28T20:41:31.413Z,3.55
2022-10-28T20:43:58.209Z,3.70
2022-10-28T20:46:25.716Z,4.03
2022-10-28T20:48:54.188Z,4.45
2022-10-28T20:51:22.068Z,4.10
2022-10-28T20:53:48.622Z,3.65
2022-10-28T20:56:27.045Z,3.83
2022-10-28T20:58:54.636Z,4.20
2022-10-28T21:01:26.594Z,4.20
2022-10-28T21:03:58.199Z,4.43
2022-10-28T21:06:25.399Z,3.95
2022-10-28T21:08:53.457Z,3.83
2022-10-28T21:11:20.607Z,3.77
2022-10-28T21:13:54.700Z,3.70
2022-10-28T21:16:21.802Z,3.60
2022-10-28T21:18:48.762Z,3.80
2022-10-28T21:21:15.666Z,3.60
2022-10-28T21:23:42.063Z,4.10
2022-10-28T21:26:10.630Z,3.47
2022-10-28T21:28:37.255Z,3.67
2022-10-28T21:31:13.008Z,3.50
2022-10-28T21:33:40.885Z,3.60
2022-10-28T21:36:18.754Z,3.40
2022-10-28T21:38:45.264Z,3.38
2022-10-28T21:41:14.526Z,3.92
2022-10-28T21:43:43.419Z,3.65
2022-10-28T21:46:09.943Z,3.67
2022-10-28T21:48:37.807Z,3.53
2022-10-28T21:51:10.039Z,3.75
2022-10-28T21:53:40.312Z,3.60
2022-10-28T21:56:13.805Z,3.40
2022-10-28T21:58:42.892Z,3.50
2022-10-28T22:01:11.831Z,4.20
2022-10-28T22:03:39.136Z,4.10
2022-10-28T22:06:06.549Z,3.53
2022-10-28T22:08:33.407Z,4.20
2022-10-28T22:11:04.976Z,5.05
2022-10-28T22:13:31.758Z,5.10
2022-10-28T22:16:03.737Z,4.90
2022-10-28T22:18:32.042Z,3.70
2022-10-28T22:21:05.520Z,3.65
2022-10-28T22:23:31.931Z,3.70
2022-10-28T22:26:02.349Z,3.30
2022-10-28T22:28:28.907Z,3.20
2022-10-28T22:31:03.546Z,3.30
2022-10-28T22:33:30.076Z,3.35
2022-10-28T22:35:58.135Z,2.85
2022-10-28T22:38:24.787Z,3.60
2022-10-28T22:41:02.298Z,3.00
2022-10-28T22:43:28.666Z,3.10
2022-10-28T22:46:01.738Z,3.15
2022-10-28T22:48:28.919Z,3.45
2022-10-28T22:50:55.477Z,3.23
2022-10-28T22:53:22.772Z,3.75
2022-10-28T22:55:49.343Z,3.70
2022-10-28T22:58:16.656Z,3.58
2022-10-28T23:00:43.738Z,3.42
2022-10-28T23:03:10.244Z,3.53
2022-10-28T23:05:36.643Z,3.65
2022-10-28T23:08:03.184Z,3.70
2022-10-28T23:10:29.635Z,3.20
2022-10-28T23:13:00.656Z,3.58
2022-10-28T23:15:28.323Z,3.27
2022-10-28T23:17:55.792Z,3.28
2022-10-28T23:20:23.998Z,3.42
2022-10-28T23:22:50.758Z,3.05
2022-10-28T23:25:17.277Z,3.03
2022-10-28T23:27:44.440Z,3.17
2022-10-28T23:30:13.016Z,3.58
2022-10-28T23:32:40.194Z,2.80
2022-10-28T23:35:07.225Z,3.30
2022-10-28T23:37:33.664Z,3.33
2022-10-28T23:40:00.215Z,3.33
2022-10-28T23:42:26.646Z,3.20
2022-10-28T23:44:53.016Z,3.28
2022-10-28T23:47:19.590Z,3.33
2022-10-28T23:49:45.987Z,2.88
2022-10-28T23:52:12.387Z,3.43
2022-10-28T23:54:38.739Z,2.78
2022-10-28T23:57:05.101Z,3.47
2022-10-28T23:59:31.442Z,2.92
